Stations météo

réclame
Mon MeteoGroup
Merida, Espagne (8331): Température de l'air & dewpoint: 15.10.2017 19:00:00 - 21.10.2017 19:00:00 (CEST)Merida, Espagne (8331): Vitesse du vent & gusts: 15.10.2017 19:00:00 - 21.10.2017 19:00:00 (CEST)Merida, Espagne (8331): Direction du vent: 15.10.2017 19:00:00 - 21.10.2017 19:00:00 (CEST)Merida, Espagne (8331): Quantités de précipitations: 15.10.2017 19:00:00 - 21.10.2017 19:00:00 (CEST)
Date & Time tt [°C] td [°C] ff [km/h] ff [knt] fx [km/h] fx [knt] dd rr [mm]
21.10.2017 19:00:00 21,4 15,7 6 4 16 9 SW 0,0
21.10.2017 18:00:00 22,3 16,1 9 5 16 8 WSW 0,0
21.10.2017 17:00:00 22,1 16,1 8 5 19 10 WSW 0,0
21.10.2017 16:00:00 23,1 16,9 9 5 17 9 SW 0,0
21.10.2017 15:00:00 22,8 17,3 6 4 20 11 SW 0,0
21.10.2017 14:00:00 20,7 17,3 11 6 21 11 WSW -
21.10.2017 13:00:00 22,1 17,7 9 5 21 11 WSW 0,0
21.10.2017 12:00:00 21,0 18,9 10 6 18 10 WSW 0,0
21.10.2017 11:00:00 19,4 19,2 10 6 19 10 WSW 0,0
21.10.2017 10:00:00 17,9 17,8 5 3 10 5 SW 0,1
21.10.2017 09:00:00 17,8 17,6 7 4 11 6 WSW 0,0
21.10.2017 08:00:00 17,8 17,6 4 2 9 5 WSW -
21.10.2017 07:00:00 17,8 17,6 4 2 11 6 WSW 0,0
21.10.2017 06:00:00 18,2 18,0 6 3 16 8 SW 0,6
21.10.2017 05:00:00 18,5 18,3 6 4 11 6 WSW 0,0
21.10.2017 04:00:00 18,5 18,3 2 1 9 5 SSW 0,0
21.10.2017 03:00:00 18,8 18,6 5 3 10 5 WSW 0,0
21.10.2017 02:00:00 18,8 18,6 3 2 8 4 WSW -
21.10.2017 01:00:00 18,6 18,5 0 0 5 3 N 0,0
21.10.2017 00:00:00 17,9 17,8 0 0 5 3 SE 0,0
20.10.2017 23:00:00 19,1 18,9 1 1 4 2 SW 0,0
20.10.2017 22:00:00 19,0 18,8 0 0 8 5 SE 0,0
20.10.2017 21:00:00 19,0 18,8 4 2 9 5 SW 0,1
20.10.2017 20:00:00 20,3 20,0 2 1 6 3 WNW -
20.10.2017 19:00:00 21,0 20,5 2 1 20 11 N 0,0
20.10.2017 18:00:00 21,1 18,3 11 6 21 12 W 0,0
20.10.2017 17:00:00 23,0 16,8 10 5 17 9 WSW 0,0
20.10.2017 16:00:00 22,9 17,6 5 3 13 7 SW 0,0
20.10.2017 15:00:00 22,0 18,2 5 3 16 8 W 0,0
20.10.2017 14:00:00 20,9 17,3 6 4 13 7 WSW -
20.10.2017 13:00:00 20,9 18,8 5 3 11 6 SSW 0,0
20.10.2017 12:00:00 19,4 19,2 5 3 11 6 W 0,0
20.10.2017 11:00:00 17,5 17,4 4 2 7 4 WSW 0,1
20.10.2017 10:00:00 17,2 17,1 2 1 5 3 SSE 0,1
20.10.2017 09:00:00 16,9 16,7 0 0 5 3 SSW 0,3
20.10.2017 08:00:00 16,8 16,6 2 1 4 2 SSE -
20.10.2017 07:00:00 16,5 16,3 3 2 9 5 S 0,0
20.10.2017 06:00:00 16,4 16,2 5 3 10 6 SW 0,0
20.10.2017 05:00:00 16,6 16,5 5 3 10 6 WSW 0,0
20.10.2017 04:00:00 16,9 16,7 6 3 10 5 WSW 0,0
20.10.2017 03:00:00 16,6 16,5 5 3 13 7 SW 0,0
20.10.2017 02:00:00 15,9 15,7 3 2 9 5 WSW -
20.10.2017 01:00:00 15,9 15,7 3 2 10 5 SW 0,0
20.10.2017 00:00:00 15,0 14,8 4 2 11 6 WSW 0,0
19.10.2017 23:00:00 15,9 15,7 9 5 18 10 WSW 0,0
19.10.2017 22:00:00 16,8 15,5 8 4 16 9 W 0,0
19.10.2017 21:00:00 17,5 14,6 8 4 21 11 WSW 0,0
19.10.2017 20:00:00 19,0 13,4 11 6 20 11 W -
19.10.2017 19:00:00 19,9 12,1 10 5 22 12 W 0,0
19.10.2017 18:00:00 20,6 11,2 15 8 26 14 WSW 0,0
19.10.2017 17:00:00 20,5 10,9 13 7 26 14 WSW 0,0
19.10.2017 16:00:00 22,7 10,5 9 5 27 14 W 0,0
19.10.2017 15:00:00 20,6 10,4 6 4 22 12 W 0,0
19.10.2017 14:00:00 19,6 10,9 9 5 22 12 W -
19.10.2017 13:00:00 19,2 12,2 9 5 20 11 WSW 0,0
19.10.2017 12:00:00 19,1 13,8 3 2 9 5 NW 0,0
19.10.2017 11:00:00 17,3 14,4 3 2 7 4 W 0,0
19.10.2017 10:00:00 13,2 13,1 0 0 4 2 N 0,0
19.10.2017 09:00:00 12,0 11,9 2 1 4 2 WSW 0,0
19.10.2017 08:00:00 11,3 11,1 1 0 7 4 W -
19.10.2017 07:00:00 11,7 11,6 3 1 4 2 WSW 0,0
19.10.2017 06:00:00 11,0 10,9 1 1 3 2 S 0,0
19.10.2017 05:00:00 11,0 10,9 0 0 6 4 NNW 0,0
19.10.2017 04:00:00 11,8 11,7 5 3 9 5 SW 0,0
19.10.2017 03:00:00 13,3 13,2 5 3 12 6 WSW 0,0
19.10.2017 02:00:00 13,7 13,6 5 3 13 7 SW -
19.10.2017 01:00:00 14,2 14,0 6 4 10 6 SW 0,0
19.10.2017 00:00:00 14,7 14,4 6 4 11 6 SW 0,0
18.10.2017 23:00:00 15,2 14,9 6 3 11 6 WSW 0,0
18.10.2017 22:00:00 15,1 13,9 5 3 13 7 WSW 0,0
18.10.2017 21:00:00 16,2 13,0 6 3 17 9 SW 0,0
18.10.2017 20:00:00 17,4 11,7 10 5 21 11 SW -
18.10.2017 19:00:00 17,1 9,6 7 4 25 14 SW 0,0
18.10.2017 18:00:00 19,1 9,8 17 9 31 17 WSW 0,0
18.10.2017 17:00:00 20,0 11,2 13 7 27 15 W 0,0
18.10.2017 16:00:00 19,3 12,1 14 7 28 15 SW 0,0
18.10.2017 15:00:00 16,1 15,6 7 4 16 9 W 0,4
18.10.2017 14:00:00 15,8 15,3 6 3 33 18 NW -
18.10.2017 13:00:00 19,7 15,3 14 8 30 16 SW 0,0
18.10.2017 12:00:00 16,2 16,0 10 5 19 11 SW 0,0
18.10.2017 11:00:00 15,0 14,8 8 5 18 10 WSW 0,2
18.10.2017 10:00:00 15,1 15,0 9 5 17 9 SW 0,0
18.10.2017 09:00:00 14,4 14,2 6 4 14 8 SW 0,0
18.10.2017 08:00:00 14,3 14,1 3 2 8 4 SE -
18.10.2017 07:00:00 13,9 13,8 2 1 6 3 SSW 1,5
18.10.2017 06:00:00 14,4 14,2 1 0 9 5 W 0,3
18.10.2017 05:00:00 15,0 14,8 1 1 7 4 W 0,0
18.10.2017 04:00:00 14,8 14,6 0 0 7 4 S 0,2
18.10.2017 03:00:00 15,4 14,9 6 3 10 5 SW 0,3
18.10.2017 02:00:00 16,8 14,2 4 2 10 6 SW -
18.10.2017 01:00:00 16,5 14,9 4 2 10 6 SW 0,0
18.10.2017 00:00:00 17,9 16,7 3 2 8 4 NW 0,0
17.10.2017 23:00:00 18,1 16,0 0 0 5 3 NNE 0,0
17.10.2017 22:00:00 16,4 15,4 3 2 5 3 SSE 0,0
17.10.2017 21:00:00 15,6 14,6 1 1 3 2 SE 0,0
17.10.2017 20:00:00 18,2 13,3 3 1 10 6 SW -
17.10.2017 19:00:00 21,3 11,6 7 4 15 8 SW 0,0
17.10.2017 18:00:00 21,4 12,0 9 5 19 10 WSW 0,0
17.10.2017 17:00:00 21,9 14,0 10 5 27 15 WSW 0,0
17.10.2017 16:00:00 22,3 14,7 14 8 24 13 WSW 0,0
17.10.2017 15:00:00 20,5 17,7 10 5 19 10 WSW 0,1
17.10.2017 14:00:00 18,1 17,9 10 6 21 12 WSW -
17.10.2017 13:00:00 20,2 19,1 6 4 16 8 S 0,0
17.10.2017 12:00:00 19,3 19,1 8 5 16 9 SSE 0,0
17.10.2017 11:00:00 17,6 17,5 9 5 18 10 SE 0,0
17.10.2017 10:00:00 17,1 17,0 9 5 18 10 ESE 1,1
17.10.2017 09:00:00 16,8 16,6 11 6 19 10 SE 6,4
17.10.2017 08:00:00 17,6 17,5 3 1 9 5 SSE -
17.10.2017 07:00:00 19,3 13,3 0 0 5 3 WSW 0,0
17.10.2017 06:00:00 19,8 12,7 0 0 14 7 NNW 0,0
17.10.2017 05:00:00 21,7 14,6 7 4 19 11 SSE 0,0
17.10.2017 04:00:00 21,1 14,7 3 2 9 5 SSE 0,0
17.10.2017 03:00:00 20,5 13,5 0 0 8 5 N 0,0
17.10.2017 02:00:00 21,8 14,7 4 2 10 6 S -
17.10.2017 01:00:00 20,8 13,8 1 1 5 3 ESE 0,0
17.10.2017 00:00:00 21,0 11,3 0 0 7 4 N 0,0
16.10.2017 23:00:00 22,7 12,3 5 3 6 4 E 0,0
16.10.2017 22:00:00 21,4 11,4 3 1 6 3 E 0,0
16.10.2017 21:00:00 22,5 11,2 2 1 11 6 SW 0,0
16.10.2017 20:00:00 23,4 11,1 5 3 14 8 SW -
16.10.2017 19:00:00 25,2 11,8 7 4 14 8 WSW 0,0
16.10.2017 18:00:00 26,5 12,2 8 5 16 9 WSW 0,0
16.10.2017 17:00:00 28,2 13,0 7 4 24 13 W 0,0
16.10.2017 16:00:00 28,4 13,2 17 9 29 16 WSW 0,0
16.10.2017 15:00:00 29,7 13,1 5 3 18 10 SE 0,0
16.10.2017 14:00:00 28,4 13,5 11 6 22 12 E -
16.10.2017 13:00:00 26,6 13,4 10 6 21 11 E 0,0
16.10.2017 12:00:00 24,7 12,3 15 8 22 12 E 0,0
16.10.2017 11:00:00 22,6 11,3 11 6 33 18 ESE 0,0
16.10.2017 10:00:00 20,2 9,2 9 5 14 7 E 0,0
16.10.2017 09:00:00 15,4 7,1 2 1 7 4 ENE 0,0
16.10.2017 08:00:00 14,3 5,6 4 2 9 5 E -
16.10.2017 07:00:00 17,8 6,7 2 1 14 8 ENE 0,0
16.10.2017 06:00:00 17,4 5,6 3 2 13 7 SE 0,0
16.10.2017 05:00:00 18,8 5,3 2 1 21 11 NE 0,0
16.10.2017 04:00:00 21,4 7,3 10 5 18 10 SSE 0,0
16.10.2017 03:00:00 22,2 7,1 11 6 23 13 ESE 0,0
16.10.2017 02:00:00 23,5 8,0 17 9 29 16 ESE -
16.10.2017 01:00:00 23,6 8,1 11 6 23 13 E 0,0
16.10.2017 00:00:00 25,0 8,5 13 7 28 15 SE 0,0
15.10.2017 23:00:00 25,9 8,4 16 9 27 15 SE 0,0
15.10.2017 22:00:00 26,9 9,3 11 6 18 10 ESE 0,0
15.10.2017 21:00:00 27,5 9,3 9 5 17 9 SSE 0,0
15.10.2017 20:00:00 28,9 10,0 9 5 22 12 SE -
15.10.2017 19:00:00 31,4 11,8 13 7 28 15 SSE 0,0

tt = Température de l'air
td = dewpoint
ff = Vitesse du vent
fx = gusts
dd = Direction du vent
rr = Quantités de précipitations

stations d'obs. à proximité